sensor_id;sensor_type;location;lat;lon;timestamp;pressure;altitude;pressure_sealevel;temperature;humidity
61573;BME280;47465;43.094;12.434;2022-12-18T00:01:43;99461.56;;;9.13;100.00
61573;BME280;47465;43.094;12.434;2022-12-18T00:04:16;99499.38;;;9.36;100.00
61573;BME280;47465;43.094;12.434;2022-12-18T00:06:44;99480.09;;;9.19;100.00
61573;BME280;47465;43.094;12.434;2022-12-18T00:09:10;99491.56;;;9.22;100.00
61573;BME280;47465;43.094;12.434;2022-12-18T00:11:37;99473.09;;;9.10;100.00
61573;BME280;47465;43.094;12.434;2022-12-18T00:14:03;99476.69;;;9.06;100.00
61573;BME280;47465;43.094;12.434;2022-12-18T00:16:29;99473.16;;;9.05;100.00
61573;BME280;47465;43.094;12.434;2022-12-18T00:18:59;99475.69;;;9.16;100.00
61573;BME280;47465;43.094;12.434;2022-12-18T00:21:26;99480.19;;;9.11;100.00
61573;BME280;47465;43.094;12.434;2022-12-18T00:23:52;99496.00;;;9.22;100.00
61573;BME280;47465;43.094;12.434;2022-12-18T00:26:20;99496.97;;;9.10;100.00
61573;BME280;47465;43.094;12.434;2022-12-18T00:28:48;99496.06;;;9.13;100.00
61573;BME280;47465;43.094;12.434;2022-12-18T00:31:15;99504.94;;;9.10;100.00
61573;BME280;47465;43.094;12.434;2022-12-18T00:33:42;99504.00;;;9.17;100.00
61573;BME280;47465;43.094;12.434;2022-12-18T00:36:10;99517.34;;;9.11;100.00
61573;BME280;47465;43.094;12.434;2022-12-18T00:38:37;99505.09;;;8.98;100.00
61573;BME280;47465;43.094;12.434;2022-12-18T00:41:03;99510.38;;;8.98;100.00
61573;BME280;47465;43.094;12.434;2022-12-18T00:43:29;99516.56;;;8.97;100.00
61573;BME280;47465;43.094;12.434;2022-12-18T00:45:56;99537.66;;;9.12;100.00
61573;BME280;47465;43.094;12.434;2022-12-18T00:48:22;99535.09;;;9.00;100.00
61573;BME280;47465;43.094;12.434;2022-12-18T00:50:51;99537.88;;;8.84;100.00
61573;BME280;47465;43.094;12.434;2022-12-18T00:53:17;99549.38;;;8.82;100.00
61573;BME280;47465;43.094;12.434;2022-12-18T00:55:43;99538.00;;;8.69;100.00
61573;BME280;47465;43.094;12.434;2022-12-18T00:58:09;99561.81;;;8.75;100.00
61573;BME280;47465;43.094;12.434;2022-12-18T01:00:36;99560.94;;;8.73;100.00
61573;BME280;47465;43.094;12.434;2022-12-18T01:03:04;99555.66;;;8.75;100.00
61573;BME280;47465;43.094;12.434;2022-12-18T01:05:30;99565.34;;;8.79;100.00
61573;BME280;47465;43.094;12.434;2022-12-18T01:07:56;99535.41;;;8.60;100.00
61573;BME280;47465;43.094;12.434;2022-12-18T01:10:22;99549.50;;;8.68;100.00
61573;BME280;47465;43.094;12.434;2022-12-18T01:12:48;99537.19;;;8.58;100.00
61573;BME280;47465;43.094;12.434;2022-12-18T01:15:15;99571.56;;;8.72;100.00
61573;BME280;47465;43.094;12.434;2022-12-18T01:17:41;99567.16;;;8.69;100.00
61573;BME280;47465;43.094;12.434;2022-12-18T01:20:10;99596.22;;;8.84;100.00
61573;BME280;47465;43.094;12.434;2022-12-18T01:22:37;99587.44;;;8.79;100.00
61573;BME280;47465;43.094;12.434;2022-12-18T01:25:04;99601.53;;;8.89;100.00
61573;BME280;47465;43.094;12.434;2022-12-18T01:27:31;99600.63;;;8.90;100.00
61573;BME280;47465;43.094;12.434;2022-12-18T01:29:58;99585.66;;;8.81;100.00
61573;BME280;47465;43.094;12.434;2022-12-18T01:32:24;99597.13;;;8.83;100.00
61573;BME280;47465;43.094;12.434;2022-12-18T01:34:50;99581.28;;;8.73;100.00
61573;BME280;47465;43.094;12.434;2022-12-18T01:37:18;99613.88;;;8.89;100.00
61573;BME280;47465;43.094;12.434;2022-12-18T01:39:44;99597.13;;;8.82;100.00
61573;BME280;47465;43.094;12.434;2022-12-18T01:42:11;99623.59;;;8.93;100.00
61573;BME280;47465;43.094;12.434;2022-12-18T01:45:06;99635.94;;;8.95;100.00
61573;BME280;47465;43.094;12.434;2022-12-18T01:47:35;99608.63;;;8.82;100.00
61573;BME280;47465;43.094;12.434;2022-12-18T01:50:05;99632.47;;;8.86;100.00
61573;BME280;47465;43.094;12.434;2022-12-18T01:52:34;99633.34;;;8.88;100.00
61573;BME280;47465;43.094;12.434;2022-12-18T01:55:01;99646.59;;;8.92;100.00
61573;BME280;47465;43.094;12.434;2022-12-18T01:57:28;99652.78;;;8.88;100.00
61573;BME280;47465;43.094;12.434;2022-12-18T01:59:59;99629.00;;;8.77;100.00
61573;BME280;47465;43.094;12.434;2022-12-18T02:02:27;99644.84;;;8.87;100.00
61573;BME280;47465;43.094;12.434;2022-12-18T02:04:54;99622.81;;;8.75;100.00
61573;BME280;47465;43.094;12.434;2022-12-18T02:07:26;99650.09;;;8.96;100.00
61573;BME280;47465;43.094;12.434;2022-12-18T02:10:00;99647.41;;;8.97;100.00
61573;BME280;47465;43.094;12.434;2022-12-18T02:12:33;99630.66;;;8.92;100.00
61573;BME280;47465;43.094;12.434;2022-12-18T02:15:07;99655.38;;;8.99;100.00
61573;BME280;47465;43.094;12.434;2022-12-18T02:17:37;99658.00;;;9.03;100.00
61573;BME280;47465;43.094;12.434;2022-12-18T02:20:13;99635.06;;;8.93;100.00
61573;BME280;47465;43.094;12.434;2022-12-18T02:22:48;99632.44;;;8.90;100.00
61573;BME280;47465;43.094;12.434;2022-12-18T02:25:25;99655.38;;;9.00;100.00
61573;BME280;47465;43.094;12.434;2022-12-18T02:27:59;99633.34;;;8.84;100.00
61573;BME280;47465;43.094;12.434;2022-12-18T02:30:27;99641.28;;;8.92;100.00
61573;BME280;47465;43.094;12.434;2022-12-18T02:32:56;99613.91;;;8.82;100.00
61573;BME280;47465;43.094;12.434;2022-12-18T02:35:25;99665.97;;;9.02;100.00
61573;BME280;47465;43.094;12.434;2022-12-18T02:37:52;99658.88;;;9.04;100.00
61573;BME280;47465;43.094;12.434;2022-12-18T02:40:19;99630.75;;;8.83;100.00
61573;BME280;47465;43.094;12.434;2022-12-18T02:42:45;99652.75;;;8.96;100.00
61573;BME280;47465;43.094;12.434;2022-12-18T02:45:12;99647.47;;;8.93;100.00
61573;BME280;47465;43.094;12.434;2022-12-18T02:47:40;99636.00;;;8.84;100.00
61573;BME280;47465;43.094;12.434;2022-12-18T02:50:15;99641.34;;;8.81;100.00
61573;BME280;47465;43.094;12.434;2022-12-18T02:52:50;99652.84;;;8.80;100.00
61573;BME280;47465;43.094;12.434;2022-12-18T02:55:27;99621.16;;;8.59;100.00
61573;BME280;47465;43.094;12.434;2022-12-18T02:57:59;99653.75;;;8.72;100.00
61573;BME280;47465;43.094;12.434;2022-12-18T03:00:31;99668.75;;;8.77;100.00
61573;BME280;47465;43.094;12.434;2022-12-18T03:03:05;99624.72;;;8.46;100.00
61573;BME280;47465;43.094;12.434;2022-12-18T03:05:36;99671.47;;;8.68;100.00
61573;BME280;47465;43.094;12.434;2022-12-18T03:08:07;99666.13;;;8.71;100.00
61573;BME280;47465;43.094;12.434;2022-12-18T03:10:38;99656.47;;;8.66;100.00
61573;BME280;47465;43.094;12.434;2022-12-18T03:13:09;99658.22;;;8.68;100.00
61573;BME280;47465;43.094;12.434;2022-12-18T03:15:42;99674.09;;;8.74;100.00
61573;BME280;47465;43.094;12.434;2022-12-18T03:18:13;99658.28;;;8.57;100.00
61573;BME280;47465;43.094;12.434;2022-12-18T03:20:43;99684.72;;;8.70;100.00
61573;BME280;47465;43.094;12.434;2022-12-18T03:23:12;99659.16;;;8.55;100.00
61573;BME280;47465;43.094;12.434;2022-12-18T03:25:40;99682.06;;;8.74;100.00
61573;BME280;47465;43.094;12.434;2022-12-18T03:28:09;99637.09;;;8.47;100.00
61573;BME280;47465;43.094;12.434;2022-12-18T03:30:40;99637.97;;;8.47;100.00
61573;BME280;47465;43.094;12.434;2022-12-18T03:33:09;99638.00;;;8.50;100.00
61573;BME280;47465;43.094;12.434;2022-12-18T03:35:39;99661.81;;;8.55;100.00
61573;BME280;47465;43.094;12.434;2022-12-18T03:38:07;99631.81;;;8.36;100.00
61573;BME280;47465;43.094;12.434;2022-12-18T03:40:42;99645.06;;;8.36;100.00
61573;BME280;47465;43.094;12.434;2022-12-18T03:43:11;99671.56;;;8.47;100.00
61573;BME280;47465;43.094;12.434;2022-12-18T03:45:48;99689.22;;;8.52;100.00
61573;BME280;47465;43.094;12.434;2022-12-18T03:48:20;99672.47;;;8.38;100.00
61573;BME280;47465;43.094;12.434;2022-12-18T03:50:56;99694.53;;;8.48;100.00
61573;BME280;47465;43.094;12.434;2022-12-18T03:53:28;99693.63;;;8.55;100.00
61573;BME280;47465;43.094;12.434;2022-12-18T03:55:58;99694.50;;;8.55;100.00
61573;BME280;47465;43.094;12.434;2022-12-18T03:58:25;99683.94;;;8.51;100.00
61573;BME280;47465;43.094;12.434;2022-12-18T04:00:56;99685.69;;;8.53;100.00
61573;BME280;47465;43.094;12.434;2022-12-18T04:03:23;99701.56;;;8.59;100.00
61573;BME280;47465;43.094;12.434;2022-12-18T04:05:51;99667.16;;;8.41;100.00
61573;BME280;47465;43.094;12.434;2022-12-18T04:08:18;99687.44;;;8.50;100.00
61573;BME280;47465;43.094;12.434;2022-12-18T04:10:44;99677.78;;;8.44;100.00
61573;BME280;47465;43.094;12.434;2022-12-18T04:13:10;99698.94;;;8.55;100.00
61573;BME280;47465;43.094;12.434;2022-12-18T04:15:36;99671.56;;;8.39;100.00
61573;BME280;47465;43.094;12.434;2022-12-18T04:18:04;99685.72;;;8.42;100.00
61573;BME280;47465;43.094;12.434;2022-12-18T04:20:30;99672.47;;;8.30;100.00
61573;BME280;47465;43.094;12.434;2022-12-18T04:22:56;99723.69;;;8.51;100.00
61573;BME280;47465;43.094;12.434;2022-12-18T04:25:22;99713.97;;;8.43;100.00
61573;BME280;47465;43.094;12.434;2022-12-18T04:27:48;99725.47;;;8.42;100.00
61573;BME280;47465;43.094;12.434;2022-12-18T04:30:14;99711.34;;;8.31;100.00
61573;BME280;47465;43.094;12.434;2022-12-18T04:32:39;99703.41;;;8.17;100.00
61573;BME280;47465;43.094;12.434;2022-12-18T04:35:07;99710.47;;;8.15;100.00
61573;BME280;47465;43.094;12.434;2022-12-18T04:37:36;99713.16;;;8.08;100.00
61573;BME280;47465;43.094;12.434;2022-12-18T04:40:01;99725.50;;;8.09;100.00
61573;BME280;47465;43.094;12.434;2022-12-18T04:42:27;99731.72;;;8.08;100.00
61573;BME280;47465;43.094;12.434;2022-12-18T04:44:53;99725.53;;;7.99;100.00
61573;BME280;47465;43.094;12.434;2022-12-18T04:47:19;99756.41;;;8.07;100.00
61573;BME280;47465;43.094;12.434;2022-12-18T04:49:44;99741.47;;;7.87;100.00
61573;BME280;47465;43.094;12.434;2022-12-18T04:52:12;99753.81;;;7.90;100.00
61573;BME280;47465;43.094;12.434;2022-12-18T04:54:38;99750.25;;;7.85;100.00
61573;BME280;47465;43.094;12.434;2022-12-18T04:57:03;99736.16;;;7.69;100.00
61573;BME280;47465;43.094;12.434;2022-12-18T04:59:29;99757.34;;;7.79;100.00
61573;BME280;47465;43.094;12.434;2022-12-18T05:01:55;99780.28;;;7.85;100.00
61573;BME280;47465;43.094;12.434;2022-12-18T05:04:21;99759.97;;;7.70;100.00
61573;BME280;47465;43.094;12.434;2022-12-18T05:06:47;99755.56;;;7.77;100.00
61573;BME280;47465;43.094;12.434;2022-12-18T05:09:14;99773.22;;;7.86;100.00
61573;BME280;47465;43.094;12.434;2022-12-18T05:11:40;99756.44;;;7.73;100.00
61573;BME280;47465;43.094;12.434;2022-12-18T05:14:06;99789.09;;;7.93;100.00
61573;BME280;47465;43.094;12.434;2022-12-18T05:16:32;99783.78;;;7.98;100.00
61573;BME280;47465;43.094;12.434;2022-12-18T05:18:57;99789.13;;;8.07;100.00
61573;BME280;47465;43.094;12.434;2022-12-18T05:21:23;99757.34;;;7.92;100.00
61573;BME280;47465;43.094;12.434;2022-12-18T05:23:49;99774.97;;;8.10;100.00
61573;BME280;47465;43.094;12.434;2022-12-18T05:26:17;99797.03;;;8.29;100.00
61573;BME280;47465;43.094;12.434;2022-12-18T05:28:43;99782.03;;;8.20;100.00
61573;BME280;47465;43.094;12.434;2022-12-18T05:31:10;99786.44;;;8.21;100.00
61573;BME280;47465;43.094;12.434;2022-12-18T05:33:36;99797.91;;;8.29;100.00
61573;BME280;47465;43.094;12.434;2022-12-18T05:36:03;99786.44;;;8.21;100.00
61573;BME280;47465;43.094;12.434;2022-12-18T05:38:31;99820.88;;;8.36;100.00
61573;BME280;47465;43.094;12.434;2022-12-18T05:40:57;99806.75;;;8.36;100.00
61573;BME280;47465;43.094;12.434;2022-12-18T05:43:25;99796.16;;;8.47;99.71
61573;BME280;47465;43.094;12.434;2022-12-18T05:45:53;99819.97;;;8.54;100.00
61573;BME280;47465;43.094;12.434;2022-12-18T05:48:19;99798.81;;;8.40;99.59
61573;BME280;47465;43.094;12.434;2022-12-18T05:50:47;99802.34;;;8.50;99.18
61573;BME280;47465;43.094;12.434;2022-12-18T05:53:16;99827.06;;;8.57;99.25
61573;BME280;47465;43.094;12.434;2022-12-18T05:55:43;99832.34;;;8.63;98.72
61573;BME280;47465;43.094;12.434;2022-12-18T05:58:11;99840.31;;;8.68;98.44
61573;BME280;47465;43.094;12.434;2022-12-18T06:00:41;99837.66;;;8.61;98.39
61573;BME280;47465;43.094;12.434;2022-12-18T06:03:07;99820.88;;;8.47;98.99
61573;BME280;47465;43.094;12.434;2022-12-18T06:05:34;99838.53;;;8.62;98.77
61573;BME280;47465;43.094;12.434;2022-12-18T06:08:00;99833.22;;;8.60;98.55
61573;BME280;47465;43.094;12.434;2022-12-18T06:10:26;99842.97;;;8.61;98.96
61573;BME280;47465;43.094;12.434;2022-12-18T06:12:52;99853.56;;;8.64;98.86
61573;BME280;47465;43.094;12.434;2022-12-18T06:15:18;99860.63;;;8.69;98.69
61573;BME280;47465;43.094;12.434;2022-12-18T06:17:45;99843.84;;;8.60;98.38
61573;BME280;47465;43.094;12.434;2022-12-18T06:20:11;99865.91;;;8.72;98.57
61573;BME280;47465;43.094;12.434;2022-12-18T06:22:37;99854.44;;;8.70;98.27
61573;BME280;47465;43.094;12.434;2022-12-18T06:25:03;99854.44;;;8.63;98.43
61573;BME280;47465;43.094;12.434;2022-12-18T06:27:29;99860.63;;;8.69;98.00
61573;BME280;47465;43.094;12.434;2022-12-18T06:29:55;99860.66;;;8.61;97.95
61573;BME280;47465;43.094;12.434;2022-12-18T06:32:21;99860.63;;;8.70;97.92
61573;BME280;47465;43.094;12.434;2022-12-18T06:34:48;99869.44;;;8.74;96.79
61573;BME280;47465;43.094;12.434;2022-12-18T06:37:14;99880.03;;;8.80;96.63
61573;BME280;47465;43.094;12.434;2022-12-18T06:39:39;99873.84;;;8.79;96.80
61573;BME280;47465;43.094;12.434;2022-12-18T06:42:05;99865.91;;;8.75;96.30
61573;BME280;47465;43.094;12.434;2022-12-18T06:44:31;99876.50;;;8.78;96.79
61573;BME280;47465;43.094;12.434;2022-12-18T06:46:57;99883.59;;;8.77;97.02
61573;BME280;47465;43.094;12.434;2022-12-18T06:49:23;99882.72;;;8.78;97.04
61573;BME280;47465;43.094;12.434;2022-12-18T06:51:50;99880.94;;;8.71;96.82
61573;BME280;47465;43.094;12.434;2022-12-18T06:54:16;99895.97;;;8.83;96.94
61573;BME280;47465;43.094;12.434;2022-12-18T06:56:42;99917.19;;;8.89;96.38
61573;BME280;47465;43.094;12.434;2022-12-18T06:59:08;99899.50;;;8.79;96.65
61573;BME280;47465;43.094;12.434;2022-12-18T07:01:33;99903.00;;;8.89;96.03
61573;BME280;47465;43.094;12.434;2022-12-18T07:03:59;99907.44;;;8.87;96.39
61573;BME280;47465;43.094;12.434;2022-12-18T07:06:26;99910.09;;;8.82;96.84
61573;BME280;47465;43.094;12.434;2022-12-18T07:08:54;99893.34;;;8.68;96.96
61573;BME280;47465;43.094;12.434;2022-12-18T07:11:20;99915.41;;;8.76;96.70
61573;BME280;47465;43.094;12.434;2022-12-18T07:13:46;99917.19;;;8.78;96.95
61573;BME280;47465;43.094;12.434;2022-12-18T07:16:14;99888.03;;;8.57;96.93
61573;BME280;47465;43.094;12.434;2022-12-18T07:18:40;99903.91;;;8.63;96.75
61573;BME280;47465;43.094;12.434;2022-12-18T07:21:07;99906.59;;;8.60;96.97
61573;BME280;47465;43.094;12.434;2022-12-18T07:23:34;99928.66;;;8.71;96.83
61573;BME280;47465;43.094;12.434;2022-12-18T07:26:03;99915.44;;;8.63;97.02
61573;BME280;47465;43.094;12.434;2022-12-18T07:28:29;99919.88;;;8.57;96.83
61573;BME280;47465;43.094;12.434;2022-12-18T07:30:55;99917.19;;;8.58;97.30
61573;BME280;47465;43.094;12.434;2022-12-18T07:33:21;99915.44;;;8.53;96.89
61573;BME280;47465;43.094;12.434;2022-12-18T07:35:47;99926.91;;;8.52;96.92
61573;BME280;47465;43.094;12.434;2022-12-18T07:38:13;99947.25;;;8.68;97.06
61573;BME280;47465;43.094;12.434;2022-12-18T07:40:39;99918.09;;;8.47;97.19
61573;BME280;47465;43.094;12.434;2022-12-18T07:43:06;99962.25;;;8.63;97.31
61573;BME280;47465;43.094;12.434;2022-12-18T07:45:32;99961.41;;;8.66;97.42
61573;BME280;47465;43.094;12.434;2022-12-18T07:47:58;99952.56;;;8.59;97.13
61573;BME280;47465;43.094;12.434;2022-12-18T07:50:23;99937.53;;;8.52;96.94
61573;BME280;47465;43.094;12.434;2022-12-18T07:52:49;99967.59;;;8.72;96.29
61573;BME280;47465;43.094;12.434;2022-12-18T07:55:15;99956.97;;;8.68;96.79
61573;BME280;47465;43.094;12.434;2022-12-18T07:57:41;99972.00;;;8.73;96.93
61573;BME280;47465;43.094;12.434;2022-12-18T08:00:09;99971.09;;;8.77;96.82
61573;BME280;47465;43.094;12.434;2022-12-18T08:02:35;99967.56;;;8.77;96.47
61573;BME280;47465;43.094;12.434;2022-12-18T08:05:01;99971.13;;;8.68;96.03
61573;BME280;47465;43.094;12.434;2022-12-18T08:07:27;99968.47;;;8.68;95.93
61573;BME280;47465;43.094;12.434;2022-12-18T08:09:53;99956.97;;;8.72;95.91
61573;BME280;47465;43.094;12.434;2022-12-18T08:12:18;99982.59;;;8.90;95.76
61573;BME280;47465;43.094;12.434;2022-12-18T08:14:44;100016.16;;;9.14;94.55
61573;BME280;47465;43.094;12.434;2022-12-18T08:17:11;100006.41;;;9.27;94.54
61573;BME280;47465;43.094;12.434;2022-12-18T08:19:37;100002.91;;;9.20;94.18
61573;BME280;47465;43.094;12.434;2022-12-18T08:22:03;100013.47;;;9.28;93.23
61573;BME280;47465;43.094;12.434;2022-12-18T08:24:29;99996.69;;;9.17;93.40
61573;BME280;47465;43.094;12.434;2022-12-18T08:26:55;100027.66;;;9.29;94.37
61573;BME280;47465;43.094;12.434;2022-12-18T08:29:22;100005.53;;;9.19;92.99
61573;BME280;47465;43.094;12.434;2022-12-18T08:31:48;100036.47;;;9.43;93.07
61573;BME280;47465;43.094;12.434;2022-12-18T08:34:16;100044.44;;;9.43;93.77
61573;BME280;47465;43.094;12.434;2022-12-18T08:36:41;100037.38;;;9.34;93.88
61573;BME280;47465;43.094;12.434;2022-12-18T08:39:07;100048.00;;;9.31;93.61
61573;BME280;47465;43.094;12.434;2022-12-18T08:41:33;100023.25;;;9.12;94.59
61573;BME280;47465;43.094;12.434;2022-12-18T08:43:59;100060.41;;;9.31;95.38
61573;BME280;47465;43.094;12.434;2022-12-18T08:46:58;100054.19;;;9.44;95.24
61573;BME280;47465;43.094;12.434;2022-12-18T08:49:24;100062.13;;;9.52;93.54
61573;BME280;47465;43.094;12.434;2022-12-18T08:51:54;100066.56;;;9.54;93.48
61573;BME280;47465;43.094;12.434;2022-12-18T08:54:20;100042.66;;;9.39;93.31
61573;BME280;47465;43.094;12.434;2022-12-18T08:56:46;100070.97;;;9.63;93.08
61573;BME280;47465;43.094;12.434;2022-12-18T08:59:11;100040.88;;;9.58;92.83
61573;BME280;47465;43.094;12.434;2022-12-18T09:01:40;100064.69;;;9.87;92.04
61573;BME280;47465;43.094;12.434;2022-12-18T09:04:08;100046.91;;;10.04;90.04
61573;BME280;47465;43.094;12.434;2022-12-18T09:06:34;100044.22;;;10.15;90.10
61573;BME280;47465;43.094;12.434;2022-12-18T09:09:00;100041.56;;;10.11;89.75
61573;BME280;47465;43.094;12.434;2022-12-18T09:11:27;100060.06;;;10.27;88.33
61573;BME280;47465;43.094;12.434;2022-12-18T09:13:54;100060.97;;;10.23;88.16
61573;BME280;47465;43.094;12.434;2022-12-18T09:16:21;100055.63;;;10.34;88.40
61573;BME280;47465;43.094;12.434;2022-12-18T09:18:47;100052.13;;;10.29;89.64
61573;BME280;47465;43.094;12.434;2022-12-18T09:21:16;100059.09;;;10.47;87.46
61573;BME280;47465;43.094;12.434;2022-12-18T09:23:42;100072.38;;;10.56;87.26
61573;BME280;47465;43.094;12.434;2022-12-18T09:26:08;100060.97;;;10.36;89.08
61573;BME280;47465;43.094;12.434;2022-12-18T09:28:34;100052.09;;;10.32;88.38
61573;BME280;47465;43.094;12.434;2022-12-18T09:31:04;100065.41;;;10.37;87.48
61573;BME280;47465;43.094;12.434;2022-12-18T09:33:31;100069.75;;;10.47;87.32
61573;BME280;47465;43.094;12.434;2022-12-18T09:35:57;100063.56;;;10.50;86.91
61573;BME280;47465;43.094;12.434;2022-12-18T09:38:24;100062.59;;;10.63;85.85
61573;BME280;47465;43.094;12.434;2022-12-18T09:40:52;100071.31;;;10.80;85.42
61573;BME280;47465;43.094;12.434;2022-12-18T09:43:21;100043.09;;;10.58;84.98
61573;BME280;47465;43.094;12.434;2022-12-18T09:45:53;100041.31;;;10.60;84.91
61573;BME280;47465;43.094;12.434;2022-12-18T09:48:34;100069.41;;;10.98;84.14
61573;BME280;47465;43.094;12.434;2022-12-18T09:51:05;100076.50;;;11.00;83.21
61573;BME280;47465;43.094;12.434;2022-12-18T09:53:37;100057.94;;;10.91;84.98
61573;BME280;47465;43.094;12.434;2022-12-18T09:56:05;100056.94;;;11.01;82.97
61573;BME280;47465;43.094;12.434;2022-12-18T09:58:34;100040.97;;;11.04;83.67
61573;BME280;47465;43.094;12.434;2022-12-18T10:01:09;100045.34;;;11.12;82.85
61573;BME280;47465;43.094;12.434;2022-12-18T10:03:35;100067.38;;;11.30;83.16
61573;BME280;47465;43.094;12.434;2022-12-18T10:06:06;100053.28;;;11.16;82.56
61573;BME280;47465;43.094;12.434;2022-12-18T10:08:43;100040.94;;;11.09;82.43
61573;BME280;47465;43.094;12.434;2022-12-18T10:11:38;100067.41;;;11.24;82.67
61573;BME280;47465;43.094;12.434;2022-12-18T10:14:13;100048.78;;;11.24;81.62
61573;BME280;47465;43.094;12.434;2022-12-18T10:16:56;100048.78;;;11.26;81.95
61573;BME280;47465;43.094;12.434;2022-12-18T10:19:34;100047.75;;;11.39;80.69
61573;BME280;47465;43.094;12.434;2022-12-18T10:22:11;100052.16;;;11.40;80.72
61573;BME280;47465;43.094;12.434;2022-12-18T10:24:48;100052.00;;;11.59;80.64
61573;BME280;47465;43.094;12.434;2022-12-18T10:27:18;100014.06;;;11.34;81.41
61573;BME280;47465;43.094;12.434;2022-12-18T10:29:48;100021.25;;;11.25;80.83
61573;BME280;47465;43.094;12.434;2022-12-18T10:32:15;100051.44;;;11.23;81.57
61573;BME280;47465;43.094;12.434;2022-12-18T10:34:45;100046.03;;;11.34;82.89
61573;BME280;47465;43.094;12.434;2022-12-18T10:37:16;100045.09;;;11.36;81.39
61573;BME280;47465;43.094;12.434;2022-12-18T10:39:42;100058.31;;;11.47;81.56
61573;BME280;47465;43.094;12.434;2022-12-18T10:42:16;100060.09;;;11.48;80.93
61573;BME280;47465;43.094;12.434;2022-12-18T10:44:42;100059.13;;;11.57;81.61
61573;BME280;47465;43.094;12.434;2022-12-18T10:47:14;100055.78;;;11.35;80.75
61573;BME280;47465;43.094;12.434;2022-12-18T10:49:48;100052.09;;;11.48;80.97
61573;BME280;47465;43.094;12.434;2022-12-18T10:52:17;100035.19;;;11.50;80.49
61573;BME280;47465;43.094;12.434;2022-12-18T10:54:48;100052.75;;;11.68;80.36
61573;BME280;47465;43.094;12.434;2022-12-18T10:57:19;100064.38;;;11.63;78.25
61573;BME280;47465;43.094;12.434;2022-12-18T10:59:57;100055.69;;;11.42;80.07
61573;BME280;47465;43.094;12.434;2022-12-18T11:02:29;100032.75;;;11.32;79.64
61573;BME280;47465;43.094;12.434;2022-12-18T11:04:59;100065.38;;;11.51;79.09
61573;BME280;47465;43.094;12.434;2022-12-18T11:07:24;100047.72;;;11.42;80.24
61573;BME280;47465;43.094;12.434;2022-12-18T11:10:00;100052.00;;;11.56;79.98
61573;BME280;47465;43.094;12.434;2022-12-18T11:12:28;100063.47;;;11.67;78.26
61573;BME280;47465;43.094;12.434;2022-12-18T11:14:55;100056.28;;;11.70;78.70
61573;BME280;47465;43.094;12.434;2022-12-18T11:17:27;100013.13;;;11.36;78.70
61573;BME280;47465;43.094;12.434;2022-12-18T11:19:55;100019.16;;;11.58;78.21
61573;BME280;47465;43.094;12.434;2022-12-18T11:22:25;100020.94;;;11.56;77.56
61573;BME280;47465;43.094;12.434;2022-12-18T11:24:55;100047.31;;;11.79;77.38
61573;BME280;47465;43.094;12.434;2022-12-18T11:27:22;100036.84;;;11.62;77.35
61573;BME280;47465;43.094;12.434;2022-12-18T11:29:50;100019.97;;;11.63;78.00
61573;BME280;47465;43.094;12.434;2022-12-18T11:32:30;100019.09;;;11.61;78.54
61573;BME280;47465;43.094;12.434;2022-12-18T11:35:03;100023.31;;;11.82;77.95
61573;BME280;47465;43.094;12.434;2022-12-18T11:37:31;100028.81;;;11.65;78.12
61573;BME280;47465;43.094;12.434;2022-12-18T11:40:01;99998.72;;;11.57;78.50
61573;BME280;47465;43.094;12.434;2022-12-18T11:42:35;100022.41;;;11.82;77.45
61573;BME280;47465;43.094;12.434;2022-12-18T11:45:25;99999.44;;;11.71;77.63
61573;BME280;47465;43.094;12.434;2022-12-18T11:47:52;100014.31;;;11.92;76.33
61573;BME280;47465;43.094;12.434;2022-12-18T11:50:24;100017.94;;;11.84;78.38
61573;BME280;47465;43.094;12.434;2022-12-18T11:52:51;99977.34;;;11.63;77.70
61573;BME280;47465;43.094;12.434;2022-12-18T11:55:37;100019.69;;;11.89;77.52
61573;BME280;47465;43.094;12.434;2022-12-18T11:58:13;100013.47;;;11.86;75.73
61573;BME280;47465;43.094;12.434;2022-12-18T12:00:46;100010.00;;;11.79;77.76
61573;BME280;47465;43.094;12.434;2022-12-18T12:03:39;100017.88;;;11.93;76.63
61573;BME280;47465;43.094;12.434;2022-12-18T12:06:12;99984.16;;;11.86;76.32
61573;BME280;47465;43.094;12.434;2022-12-18T12:08:53;100002.63;;;12.03;75.74
61573;BME280;47465;43.094;12.434;2022-12-18T12:11:35;100016.09;;;11.92;75.18
61573;BME280;47465;43.094;12.434;2022-12-18T12:14:17;99973.78;;;11.63;76.88
61573;BME280;47465;43.094;12.434;2022-12-18T12:16:52;99989.59;;;11.80;76.38
61573;BME280;47465;43.094;12.434;2022-12-18T12:19:33;99984.09;;;11.92;75.09
61573;BME280;47465;43.094;12.434;2022-12-18T12:22:08;99991.25;;;11.90;75.80
61573;BME280;47465;43.094;12.434;2022-12-18T12:24:43;100005.41;;;11.95;75.22
61573;BME280;47465;43.094;12.434;2022-12-18T12:27:19;100004.50;;;11.98;75.50
61573;BME280;47465;43.094;12.434;2022-12-18T12:29:58;99992.09;;;11.94;76.13
61573;BME280;47465;43.094;12.434;2022-12-18T12:32:40;100017.69;;;12.05;76.66
61573;BME280;47465;43.094;12.434;2022-12-18T12:35:19;100014.13;;;12.08;75.91
61573;BME280;47465;43.094;12.434;2022-12-18T12:37:59;99986.69;;;11.98;75.72
61573;BME280;47465;43.094;12.434;2022-12-18T12:40:27;100018.53;;;12.10;74.19
61573;BME280;47465;43.094;12.434;2022-12-18T12:42:59;99993.78;;;12.01;75.13
61573;BME280;47465;43.094;12.434;2022-12-18T12:46:04;100007.00;;;12.08;75.02
61573;BME280;47465;43.094;12.434;2022-12-18T12:48:42;99983.25;;;11.87;74.19
61573;BME280;47465;43.094;12.434;2022-12-18T12:51:15;100005.41;;;11.95;74.14
61573;BME280;47465;43.094;12.434;2022-12-18T12:53:42;100006.16;;;12.03;73.67
61573;BME280;47465;43.094;12.434;2022-12-18T12:56:10;100005.38;;;11.98;73.30
61573;BME280;47465;43.094;12.434;2022-12-18T12:58:38;100018.63;;;12.04;74.36
61573;BME280;47465;43.094;12.434;2022-12-18T13:01:17;100011.44;;;12.09;73.87